Pays
Station

 

Conditions  météo  pour  Wildwood Automatic Weather Observing/Reporting System  -  Etats-Unis    Etats-Unis

  
22 °C
    
 
 

METAR pour Wildwood Automatic Weather Observing/Reporting System :

KWWD 201056Z AUTO 20008KT 10SM CLR 22/19 A2991 RMK AO2 SLP130 T02220189

 

Voici le bulletin pour Wildwood Automatic Weather Observing/Reporting System - Etats-Unis.
 
Le bulletin a été fait il y a 20 minutes, à 10:56 UTC .
Le vent soufflait à la vitesse de 4.1 mètres par seconde de Sud/Sud-ouest (200°).
 
La température était de 22 °C, avec un point de rosée à 19 °C.
La température ressentie était de 22 °C.
 
La pression atmosphérique était de 1013 hPa.
L'humidité relative était de 83.1%.
 
Le ciel était clair.
 
La visibilité globale était de 16.1 kilomètres.
 

 
 
 

Pays :   A   B   C   D   E   F   G   H   I   J   K   L   M   N   O   P   Q   R   S   T   U   V   W   Y   Z

 

Partenaires :  Info Météo avec Met'info
Météo Marine avec MeteoMarine.net
Infos Site  |  Infos Légales  |  Crédits  |  Confidentialité
Contactez-nous  |  Ajouter aux favoris
© 2013-2019 METAR - Tous droits réservés